sensor_id;sensor_type;location;lat;lon;timestamp;temperature;humidity
4596;DHT22;2310;49.978;8.742;2022-10-04T00:06:23;10.80;99.90
4596;DHT22;2310;49.978;8.742;2022-10-04T00:10:31;10.90;99.90
4596;DHT22;2310;49.978;8.742;2022-10-04T00:14:36;10.90;99.90
4596;DHT22;2310;49.978;8.742;2022-10-04T00:18:40;10.90;99.90
4596;DHT22;2310;49.978;8.742;2022-10-04T00:23:23;10.90;99.90
4596;DHT22;2310;49.978;8.742;2022-10-04T00:27:08;10.90;99.90
4596;DHT22;2310;49.978;8.742;2022-10-04T00:43:44;10.80;99.90
4596;DHT22;2310;49.978;8.742;2022-10-04T00:52:01;10.50;99.90
4596;DHT22;2310;49.978;8.742;2022-10-04T00:56:06;10.50;99.90
4596;DHT22;2310;49.978;8.742;2022-10-04T01:00:14;10.40;99.90
4596;DHT22;2310;49.978;8.742;2022-10-04T01:04:45;10.40;99.90
4596;DHT22;2310;49.978;8.742;2022-10-04T01:08:51;10.50;99.90
4596;DHT22;2310;49.978;8.742;2022-10-04T01:17:02;10.20;99.90
4596;DHT22;2310;49.978;8.742;2022-10-04T01:25:43;10.10;99.90
4596;DHT22;2310;49.978;8.742;2022-10-04T01:29:44;10.20;99.90
4596;DHT22;2310;49.978;8.742;2022-10-04T01:33:46;10.20;99.90
4596;DHT22;2310;49.978;8.742;2022-10-04T01:37:48;10.20;99.90
4596;DHT22;2310;49.978;8.742;2022-10-04T01:42:10;10.20;99.90
4596;DHT22;2310;49.978;8.742;2022-10-04T01:46:17;10.20;99.90
4596;DHT22;2310;49.978;8.742;2022-10-04T01:50:26;10.00;99.90
4596;DHT22;2310;49.978;8.742;2022-10-04T01:54:41;10.10;99.90
4596;DHT22;2310;49.978;8.742;2022-10-04T01:58:53;10.20;99.90
4596;DHT22;2310;49.978;8.742;2022-10-04T02:03:00;10.10;99.90
4596;DHT22;2310;49.978;8.742;2022-10-04T02:07:03;10.10;99.90
4596;DHT22;2310;49.978;8.742;2022-10-04T02:11:06;10.10;99.90
4596;DHT22;2310;49.978;8.742;2022-10-04T02:15:09;9.90;99.90
4596;DHT22;2310;49.978;8.742;2022-10-04T02:19:13;9.70;99.90
4596;DHT22;2310;49.978;8.742;2022-10-04T02:23:21;9.70;99.90
4596;DHT22;2310;49.978;8.742;2022-10-04T02:27:27;9.60;99.90
4596;DHT22;2310;49.978;8.742;2022-10-04T02:31:32;9.50;99.90
4596;DHT22;2310;49.978;8.742;2022-10-04T02:35:51;9.50;99.90
4596;DHT22;2310;49.978;8.742;2022-10-04T02:39:56;9.60;99.90
4596;DHT22;2310;49.978;8.742;2022-10-04T02:52:51;9.50;99.90
4596;DHT22;2310;49.978;8.742;2022-10-04T02:56:54;9.50;99.90
4596;DHT22;2310;49.978;8.742;2022-10-04T03:00:57;9.60;99.90
4596;DHT22;2310;49.978;8.742;2022-10-04T03:05:09;9.60;99.90
4596;DHT22;2310;49.978;8.742;2022-10-04T03:09:08;9.50;99.90
4596;DHT22;2310;49.978;8.742;2022-10-04T03:13:10;9.50;99.90
4596;DHT22;2310;49.978;8.742;2022-10-04T03:17:13;9.50;99.90
4596;DHT22;2310;49.978;8.742;2022-10-04T03:21:18;9.40;99.90
4596;DHT22;2310;49.978;8.742;2022-10-04T03:25:28;9.30;99.90
4596;DHT22;2310;49.978;8.742;2022-10-04T03:29:32;9.10;99.90
4596;DHT22;2310;49.978;8.742;2022-10-04T03:33:34;9.10;99.90
4596;DHT22;2310;49.978;8.742;2022-10-04T03:37:36;8.90;99.90
4596;DHT22;2310;49.978;8.742;2022-10-04T03:41:39;8.80;99.90
4596;DHT22;2310;49.978;8.742;2022-10-04T03:45:42;9.00;99.90
4596;DHT22;2310;49.978;8.742;2022-10-04T03:49:44;9.20;99.90
4596;DHT22;2310;49.978;8.742;2022-10-04T03:53:54;9.20;99.90
4596;DHT22;2310;49.978;8.742;2022-10-04T03:57:57;9.30;99.90
4596;DHT22;2310;49.978;8.742;2022-10-04T04:10:50;9.40;99.90
4596;DHT22;2310;49.978;8.742;2022-10-04T04:14:52;9.40;99.90
4596;DHT22;2310;49.978;8.742;2022-10-04T04:18:58;9.40;99.90
4596;DHT22;2310;49.978;8.742;2022-10-04T04:23:03;9.30;99.90
4596;DHT22;2310;49.978;8.742;2022-10-04T04:27:03;9.20;99.90
4596;DHT22;2310;49.978;8.742;2022-10-04T04:31:08;9.20;99.90
4596;DHT22;2310;49.978;8.742;2022-10-04T04:35:33;9.20;99.90
4596;DHT22;2310;49.978;8.742;2022-10-04T04:39:29;9.20;99.90
4596;DHT22;2310;49.978;8.742;2022-10-04T04:43:44;9.20;99.90
4596;DHT22;2310;49.978;8.742;2022-10-04T04:47:48;9.20;99.90
4596;DHT22;2310;49.978;8.742;2022-10-04T04:51:51;9.20;99.90
4596;DHT22;2310;49.978;8.742;2022-10-04T04:55:58;9.20;99.90
4596;DHT22;2310;49.978;8.742;2022-10-04T05:00:02;9.20;99.90
4596;DHT22;2310;49.978;8.742;2022-10-04T05:04:13;9.20;99.90
4596;DHT22;2310;49.978;8.742;2022-10-04T05:12:19;9.20;99.90
4596;DHT22;2310;49.978;8.742;2022-10-04T05:16:27;9.30;99.90
4596;DHT22;2310;49.978;8.742;2022-10-04T05:20:29;9.30;99.90
4596;DHT22;2310;49.978;8.742;2022-10-04T05:24:37;9.30;99.90
4596;DHT22;2310;49.978;8.742;2022-10-04T05:28:40;9.20;99.90
4596;DHT22;2310;49.978;8.742;2022-10-04T05:33:04;9.20;99.90
4596;DHT22;2310;49.978;8.742;2022-10-04T05:41:35;9.40;99.90
4596;DHT22;2310;49.978;8.742;2022-10-04T05:45:36;9.20;99.90
4596;DHT22;2310;49.978;8.742;2022-10-04T05:49:44;8.80;99.90
4596;DHT22;2310;49.978;8.742;2022-10-04T05:53:47;8.90;99.90
4596;DHT22;2310;49.978;8.742;2022-10-04T05:58:21;9.10;99.90
4596;DHT22;2310;49.978;8.742;2022-10-04T06:02:33;9.30;99.90
4596;DHT22;2310;49.978;8.742;2022-10-04T06:06:48;9.20;99.90
4596;DHT22;2310;49.978;8.742;2022-10-04T06:24:27;9.50;99.90
4596;DHT22;2310;49.978;8.742;2022-10-04T06:28:33;9.50;99.90
4596;DHT22;2310;49.978;8.742;2022-10-04T06:41:46;9.90;99.90
4596;DHT22;2310;49.978;8.742;2022-10-04T06:50:33;10.10;99.90
4596;DHT22;2310;49.978;8.742;2022-10-04T06:59:25;10.50;99.90
4596;DHT22;2310;49.978;8.742;2022-10-04T07:03:26;10.50;99.90
4596;DHT22;2310;49.978;8.742;2022-10-04T07:07:33;10.60;99.90
4596;DHT22;2310;49.978;8.742;2022-10-04T07:11:48;10.70;99.90
4596;DHT22;2310;49.978;8.742;2022-10-04T07:16:07;10.90;99.90
4596;DHT22;2310;49.978;8.742;2022-10-04T07:20:28;11.20;99.90
4596;DHT22;2310;49.978;8.742;2022-10-04T07:28:54;11.30;99.90
4596;DHT22;2310;49.978;8.742;2022-10-04T07:33:18;11.40;99.90
4596;DHT22;2310;49.978;8.742;2022-10-04T07:37:20;11.10;99.90
4596;DHT22;2310;49.978;8.742;2022-10-04T07:41:25;11.30;99.90
4596;DHT22;2310;49.978;8.742;2022-10-04T07:45:32;11.60;99.90
4596;DHT22;2310;49.978;8.742;2022-10-04T07:49:39;11.70;99.90
4596;DHT22;2310;49.978;8.742;2022-10-04T07:53:49;11.90;99.90
4596;DHT22;2310;49.978;8.742;2022-10-04T08:06:50;12.50;99.90
4596;DHT22;2310;49.978;8.742;2022-10-04T08:23:44;13.00;99.90
4596;DHT22;2310;49.978;8.742;2022-10-04T08:28:16;13.40;99.90
4596;DHT22;2310;49.978;8.742;2022-10-04T08:37:03;13.60;99.90
4596;DHT22;2310;49.978;8.742;2022-10-04T08:45:48;14.20;99.90
4596;DHT22;2310;49.978;8.742;2022-10-04T09:16:44;15.90;99.90
4596;DHT22;2310;49.978;8.742;2022-10-04T09:20:56;16.40;99.90
4596;DHT22;2310;49.978;8.742;2022-10-04T09:25:33;16.80;99.90
4596;DHT22;2310;49.978;8.742;2022-10-04T09:38:41;17.40;99.90
4596;DHT22;2310;49.978;8.742;2022-10-04T10:00:34;17.90;99.90
4596;DHT22;2310;49.978;8.742;2022-10-04T10:13:53;19.50;99.90
4596;DHT22;2310;49.978;8.742;2022-10-04T10:17:56;19.80;99.90
4596;DHT22;2310;49.978;8.742;2022-10-04T10:22:26;19.60;99.90
4596;DHT22;2310;49.978;8.742;2022-10-04T10:26:48;19.30;99.90
4596;DHT22;2310;49.978;8.742;2022-10-04T10:31:04;19.90;99.90
4596;DHT22;2310;49.978;8.742;2022-10-04T10:35:26;20.00;99.90
4596;DHT22;2310;49.978;8.742;2022-10-04T10:48:17;19.50;99.90
4596;DHT22;2310;49.978;8.742;2022-10-04T10:57:09;19.40;99.90
4596;DHT22;2310;49.978;8.742;2022-10-04T11:01:25;19.30;99.90
4596;DHT22;2310;49.978;8.742;2022-10-04T11:23:35;19.80;99.90
4596;DHT22;2310;49.978;8.742;2022-10-04T11:36:49;20.70;99.90
4596;DHT22;2310;49.978;8.742;2022-10-04T12:02:45;22.00;99.90
4596;DHT22;2310;49.978;8.742;2022-10-04T12:11:49;22.20;99.90
4596;DHT22;2310;49.978;8.742;2022-10-04T12:24:59;22.50;99.90
4596;DHT22;2310;49.978;8.742;2022-10-04T12:33:36;21.20;99.90
4596;DHT22;2310;49.978;8.742;2022-10-04T12:46:31;22.10;99.90
4596;DHT22;2310;49.978;8.742;2022-10-04T12:59:34;22.60;99.90
4596;DHT22;2310;49.978;8.742;2022-10-04T13:21:04;22.30;99.90
4596;DHT22;2310;49.978;8.742;2022-10-04T13:25:13;22.20;99.90
4596;DHT22;2310;49.978;8.742;2022-10-04T13:29:19;22.10;99.90
4596;DHT22;2310;49.978;8.742;2022-10-04T13:33:27;22.60;99.90
4596;DHT22;2310;49.978;8.742;2022-10-04T13:54:33;22.50;99.90
4596;DHT22;2310;49.978;8.742;2022-10-04T14:03:13;22.30;99.90
4596;DHT22;2310;49.978;8.742;2022-10-04T14:07:27;22.10;99.90
4596;DHT22;2310;49.978;8.742;2022-10-04T14:11:50;22.10;99.90
4596;DHT22;2310;49.978;8.742;2022-10-04T14:16:16;22.10;99.90
4596;DHT22;2310;49.978;8.742;2022-10-04T14:55:59;21.00;99.90
4596;DHT22;2310;49.978;8.742;2022-10-04T15:00:07;21.40;99.90
4596;DHT22;2310;49.978;8.742;2022-10-04T15:04:27;21.20;99.90
4596;DHT22;2310;49.978;8.742;2022-10-04T15:08:39;21.10;99.90
4596;DHT22;2310;49.978;8.742;2022-10-04T15:17:09;21.20;99.90
4596;DHT22;2310;49.978;8.742;2022-10-04T15:21:41;21.00;99.90
4596;DHT22;2310;49.978;8.742;2022-10-04T15:25:45;21.00;99.90
4596;DHT22;2310;49.978;8.742;2022-10-04T15:34:42;21.00;99.90
4596;DHT22;2310;49.978;8.742;2022-10-04T15:38:55;21.10;99.90
4596;DHT22;2310;49.978;8.742;2022-10-04T16:00:21;20.60;99.90
4596;DHT22;2310;49.978;8.742;2022-10-04T16:22:25;20.40;99.90
4596;DHT22;2310;49.978;8.742;2022-10-04T16:30:43;20.40;99.90
4596;DHT22;2310;49.978;8.742;2022-10-04T16:34:49;20.50;99.90
4596;DHT22;2310;49.978;8.742;2022-10-04T16:38:55;20.40;99.90
4596;DHT22;2310;49.978;8.742;2022-10-04T16:47:33;20.50;99.90
4596;DHT22;2310;49.978;8.742;2022-10-04T16:51:46;20.00;99.90
4596;DHT22;2310;49.978;8.742;2022-10-04T16:55:53;20.10;99.90
4596;DHT22;2310;49.978;8.742;2022-10-04T17:08:51;19.60;99.90
4596;DHT22;2310;49.978;8.742;2022-10-04T17:13:24;19.20;99.90
4596;DHT22;2310;49.978;8.742;2022-10-04T17:22:16;18.30;99.90
4596;DHT22;2310;49.978;8.742;2022-10-04T17:26:33;18.00;99.90
4596;DHT22;2310;49.978;8.742;2022-10-04T17:39:42;17.60;99.90
4596;DHT22;2310;49.978;8.742;2022-10-04T17:52:28;17.30;99.90
4596;DHT22;2310;49.978;8.742;2022-10-04T18:05:54;16.90;99.90
4596;DHT22;2310;49.978;8.742;2022-10-04T18:09:57;16.70;99.90
4596;DHT22;2310;49.978;8.742;2022-10-04T18:14:07;16.70;99.90
4596;DHT22;2310;49.978;8.742;2022-10-04T18:18:16;16.60;99.90
4596;DHT22;2310;49.978;8.742;2022-10-04T18:22:20;16.40;99.90
4596;DHT22;2310;49.978;8.742;2022-10-04T18:26:28;16.30;99.90
4596;DHT22;2310;49.978;8.742;2022-10-04T18:30:29;16.20;99.90
4596;DHT22;2310;49.978;8.742;2022-10-04T18:34:31;16.10;99.90
4596;DHT22;2310;49.978;8.742;2022-10-04T18:38:33;16.10;99.90
4596;DHT22;2310;49.978;8.742;2022-10-04T18:42:35;16.00;99.90
4596;DHT22;2310;49.978;8.742;2022-10-04T18:46:40;16.10;99.90
4596;DHT22;2310;49.978;8.742;2022-10-04T18:50:43;16.00;99.90
4596;DHT22;2310;49.978;8.742;2022-10-04T18:54:59;15.90;99.90
4596;DHT22;2310;49.978;8.742;2022-10-04T19:03:44;15.60;99.90
4596;DHT22;2310;49.978;8.742;2022-10-04T19:20:57;15.20;99.90
4596;DHT22;2310;49.978;8.742;2022-10-04T19:29:37;15.20;99.90
4596;DHT22;2310;49.978;8.742;2022-10-04T19:33:44;15.00;99.90
4596;DHT22;2310;49.978;8.742;2022-10-04T19:42:51;15.00;99.90
4596;DHT22;2310;49.978;8.742;2022-10-04T19:47:18;14.80;99.90
4596;DHT22;2310;49.978;8.742;2022-10-04T19:51:37;14.80;99.90
4596;DHT22;2310;49.978;8.742;2022-10-04T19:55:59;14.70;99.90
4596;DHT22;2310;49.978;8.742;2022-10-04T20:03:55;14.60;99.90
4596;DHT22;2310;49.978;8.742;2022-10-04T20:08:43;14.60;99.90
4596;DHT22;2310;49.978;8.742;2022-10-04T20:24:59;14.40;99.90
4596;DHT22;2310;49.978;8.742;2022-10-04T20:29:01;14.30;99.90
4596;DHT22;2310;49.978;8.742;2022-10-04T20:33:03;14.20;99.90
4596;DHT22;2310;49.978;8.742;2022-10-04T20:37:05;14.20;99.90
4596;DHT22;2310;49.978;8.742;2022-10-04T20:45:40;14.20;99.90
4596;DHT22;2310;49.978;8.742;2022-10-04T20:49:38;14.10;99.90
4596;DHT22;2310;49.978;8.742;2022-10-04T20:53:42;14.00;99.90
4596;DHT22;2310;49.978;8.742;2022-10-04T20:57:45;14.00;99.90
4596;DHT22;2310;49.978;8.742;2022-10-04T21:02:00;13.90;99.90
4596;DHT22;2310;49.978;8.742;2022-10-04T21:06:07;13.90;99.90
4596;DHT22;2310;49.978;8.742;2022-10-04T21:10:18;13.80;99.90
4596;DHT22;2310;49.978;8.742;2022-10-04T21:14:25;13.70;99.90
4596;DHT22;2310;49.978;8.742;2022-10-04T21:18:26;13.60;99.90
4596;DHT22;2310;49.978;8.742;2022-10-04T21:22:30;13.60;99.90
4596;DHT22;2310;49.978;8.742;2022-10-04T21:26:32;13.60;99.90
4596;DHT22;2310;49.978;8.742;2022-10-04T21:30:35;13.40;99.90
4596;DHT22;2310;49.978;8.742;2022-10-04T21:34:36;13.50;99.90
4596;DHT22;2310;49.978;8.742;2022-10-04T21:38:39;13.40;99.90
4596;DHT22;2310;49.978;8.742;2022-10-04T21:42:40;13.50;99.90
4596;DHT22;2310;49.978;8.742;2022-10-04T21:46:41;13.40;99.90
4596;DHT22;2310;49.978;8.742;2022-10-04T21:50:42;13.50;99.90
4596;DHT22;2310;49.978;8.742;2022-10-04T21:54:44;13.50;99.90
4596;DHT22;2310;49.978;8.742;2022-10-04T21:58:45;13.50;99.90
4596;DHT22;2310;49.978;8.742;2022-10-04T22:02:47;13.50;99.90
4596;DHT22;2310;49.978;8.742;2022-10-04T22:06:48;13.50;99.90
4596;DHT22;2310;49.978;8.742;2022-10-04T22:10:50;13.50;99.90
4596;DHT22;2310;49.978;8.742;2022-10-04T22:14:53;13.40;99.90
4596;DHT22;2310;49.978;8.742;2022-10-04T22:18:54;13.30;99.90
4596;DHT22;2310;49.978;8.742;2022-10-04T22:22:57;13.20;99.90
4596;DHT22;2310;49.978;8.742;2022-10-04T22:26:58;13.10;99.90
4596;DHT22;2310;49.978;8.742;2022-10-04T22:31:00;13.00;99.90
4596;DHT22;2310;49.978;8.742;2022-10-04T22:35:14;13.00;99.90
4596;DHT22;2310;49.978;8.742;2022-10-04T22:39:18;13.00;99.90
4596;DHT22;2310;49.978;8.742;2022-10-04T22:43:19;13.00;99.90
4596;DHT22;2310;49.978;8.742;2022-10-04T22:47:21;12.90;99.90
4596;DHT22;2310;49.978;8.742;2022-10-04T22:51:29;12.90;99.90
4596;DHT22;2310;49.978;8.742;2022-10-04T22:55:32;12.90;99.90
4596;DHT22;2310;49.978;8.742;2022-10-04T22:59:40;13.00;99.90
4596;DHT22;2310;49.978;8.742;2022-10-04T23:03:46;12.90;99.90
4596;DHT22;2310;49.978;8.742;2022-10-04T23:07:48;12.90;99.90
4596;DHT22;2310;49.978;8.742;2022-10-04T23:11:49;12.80;99.90
4596;DHT22;2310;49.978;8.742;2022-10-04T23:15:51;12.70;99.90
4596;DHT22;2310;49.978;8.742;2022-10-04T23:20:00;12.70;99.90
4596;DHT22;2310;49.978;8.742;2022-10-04T23:28:20;12.70;99.90
4596;DHT22;2310;49.978;8.742;2022-10-04T23:32:24;12.70;99.90
4596;DHT22;2310;49.978;8.742;2022-10-04T23:36:26;12.70;99.90
4596;DHT22;2310;49.978;8.742;2022-10-04T23:40:28;12.60;99.90
4596;DHT22;2310;49.978;8.742;2022-10-04T23:44:34;12.60;99.90
4596;DHT22;2310;49.978;8.742;2022-10-04T23:48:37;12.60;99.90
4596;DHT22;2310;49.978;8.742;2022-10-04T23:52:40;12.50;99.90
4596;DHT22;2310;49.978;8.742;2022-10-04T23:56:43;12.40;99.90
